Time,TemperatureF,DewpointF,PressureIn,WindDirection,WindDirectionDegrees,WindSpeedMPH,WindSpeedGustMPH,Humidity,HourlyPrecipIn,Conditions,Clouds,dailyrainin,SoftwareType,DateUTC
2013-02-15 00:00:00,45.8,34.3,30.00,NW,326,3.5,3.5,64,0.00,CLR,,0.00,WeatherDisplay:10.37,2013-02-15 06:00:00,
2013-02-15 00:05:00,45.6,34.1,30.00,NW,325,2.3,2.3,64,0.00,CLR,,0.00,WeatherDisplay:10.37,2013-02-15 06:05:00,
2013-02-15 00:10:00,45.4,33.9,30.01,NNW,328,2.3,2.3,64,0.00,CLR,,0.00,WeatherDisplay:10.37,2013-02-15 06:10:00,
2013-02-15 00:15:00,45.2,34.1,30.01,NW,323,2.3,2.3,65,0.00,CLR,,0.00,WeatherDisplay:10.37,2013-02-15 06:15:00,
2013-02-15 00:20:00,45.1,34.0,30.01,NNW,333,3.5,3.5,65,0.00,CLR,,0.00,WeatherDisplay:10.37,2013-02-15 06:20:00,
2013-02-15 00:25:00,45.0,33.9,30.01,NW,311,1.1,1.1,65,0.00,CLR,,0.00,WeatherDisplay:10.37,2013-02-15 06:25:00,
2013-02-15 00:30:00,44.9,33.8,30.01,NW,311,1.1,0.0,65,0.00,CLR,,0.00,WeatherDisplay:10.37,2013-02-15 06:30:00,
2013-02-15 00:35:00,44.7,33.6,30.01,WNW,294,2.3,2.3,65,0.00,CLR,,0.00,WeatherDisplay:10.37,2013-02-15 06:35:00,
2013-02-15 00:40:00,44.6,33.9,30.01,NNW,331,2.3,2.3,66,0.00,CLR,,0.00,WeatherDisplay:10.37,2013-02-15 06:40:00,
2013-02-15 00:45:00,44.5,33.8,30.01,NNW,331,1.1,1.1,66,0.00,CLR,,0.00,WeatherDisplay:10.37,2013-02-15 06:45:00,
2013-02-15 00:50:00,44.3,33.7,30.01,NNW,331,1.1,1.1,66,0.00,CLR,,0.00,WeatherDisplay:10.37,2013-02-15 06:50:00,
2013-02-15 00:55:00,44.2,33.6,30.01,NNW,331,1.1,1.1,66,0.00,CLR,,0.00,WeatherDisplay:10.37,2013-02-15 06:55:00,
2013-02-15 01:00:00,44.2,33.6,30.01,NNW,331,1.1,1.1,66,0.00,CLR,,0.00,WeatherDisplay:10.37,2013-02-15 07:00:00,
2013-02-15 01:05:00,44.1,33.8,30.01,NNW,331,0.0,0.0,67,0.00,CLR,,0.00,WeatherDisplay:10.37,2013-02-15 07:05:00,
2013-02-15 01:10:00,43.9,33.6,30.01,NNW,331,0.0,0.0,67,0.00,CLR,,0.00,WeatherDisplay:10.37,2013-02-15 07:10:00,
2013-02-15 01:15:00,43.7,33.8,30.01,NNW,331,0.0,0.0,68,0.00,CLR,,0.00,WeatherDisplay:10.37,2013-02-15 07:15:00,
2013-02-15 01:20:00,43.5,33.6,30.01,NNW,331,0.0,0.0,68,0.00,CLR,,0.00,WeatherDisplay:10.37,2013-02-15 07:20:00,
2013-02-15 01:25:00,43.2,33.7,30.01,NNW,331,0.0,0.0,69,0.00,CLR,,0.00,WeatherDisplay:10.37,2013-02-15 07:25:00,
2013-02-15 01:31:00,42.5,33.0,30.01,NNW,331,0.0,0.0,69,0.00,CLR,,0.00,WeatherDisplay:10.37,2013-02-15 07:31:00,
2013-02-15 01:36:00,42.1,33.0,30.01,NNW,331,0.0,0.0,70,0.00,CLR,,0.00,WeatherDisplay:10.37,2013-02-15 07:36:00,
2013-02-15 01:41:00,41.8,33.1,30.01,NNW,331,0.0,0.0,71,0.00,CLR,,0.00,WeatherDisplay:10.37,2013-02-15 07:41:00,
2013-02-15 01:46:00,41.5,32.8,30.02,NNW,331,0.0,0.0,71,0.00,CLR,,0.00,WeatherDisplay:10.37,2013-02-15 07:46:00,
2013-02-15 01:51:00,41.4,33.0,30.02,NNW,331,0.0,0.0,72,0.00,CLR,,0.00,WeatherDisplay:10.37,2013-02-15 07:51:00,
2013-02-15 01:56:00,41.3,33.0,30.02,NNW,331,0.0,0.0,72,0.00,CLR,,0.00,WeatherDisplay:10.37,2013-02-15 07:56:00,
2013-02-15 02:01:00,41.2,33.2,30.02,NNW,331,0.0,0.0,73,0.00,CLR,,0.00,WeatherDisplay:10.37,2013-02-15 08:01:00,
2013-02-15 02:06:00,41.0,33.0,30.02,NNW,331,0.0,0.0,73,0.00,CLR,,0.00,WeatherDisplay:10.37,2013-02-15 08:06:00,
2013-02-15 02:11:00,40.8,32.8,30.02,NNW,331,0.0,0.0,73,0.00,CLR,,0.00,WeatherDisplay:10.37,2013-02-15 08:11:00,
2013-02-15 02:16:00,40.6,33.0,30.03,NNW,331,0.0,0.0,74,0.00,CLR,,0.00,WeatherDisplay:10.37,2013-02-15 08:16:00,
2013-02-15 02:21:00,40.1,32.5,30.03,NNW,331,0.0,0.0,74,0.00,CLR,,0.00,WeatherDisplay:10.37,2013-02-15 08:21:00,
2013-02-15 02:26:00,39.8,32.5,30.03,NNW,331,0.0,0.0,75,0.00,CLR,,0.00,WeatherDisplay:10.37,2013-02-15 08:26:00,
2013-02-15 02:31:00,39.7,32.8,30.03,NNW,331,0.0,0.0,76,0.00,CLR,,0.00,WeatherDisplay:10.37,2013-02-15 08:31:00,
2013-02-15 02:36:00,39.6,32.7,30.03,NNW,331,0.0,0.0,76,0.00,CLR,,0.00,WeatherDisplay:10.37,2013-02-15 08:36:00,
2013-02-15 02:41:00,39.5,32.6,30.03,NNW,331,0.0,0.0,76,0.00,CLR,,0.00,WeatherDisplay:10.37,2013-02-15 08:41:00,
2013-02-15 02:46:00,39.4,32.5,30.03,NNW,331,0.0,0.0,76,0.00,CLR,,0.00,WeatherDisplay:10.37,2013-02-15 08:46:00,
2013-02-15 02:51:00,39.3,32.7,30.03,NNW,331,0.0,0.0,77,0.00,CLR,,0.00,WeatherDisplay:10.37,2013-02-15 08:51:00,
2013-02-15 02:56:00,39.2,32.6,30.03,NNW,331,0.0,0.0,77,0.00,CLR,,0.00,WeatherDisplay:10.37,2013-02-15 08:56:00,
2013-02-15 03:01:00,39.3,33.0,30.03,NNW,331,0.0,0.0,78,0.00,CLR,,0.00,WeatherDisplay:10.37,2013-02-15 09:01:00,
2013-02-15 03:06:00,39.2,32.6,30.03,NNW,331,0.0,0.0,77,0.00,CLR,,0.00,WeatherDisplay:10.37,2013-02-15 09:06:00,
2013-02-15 03:11:00,39.0,32.7,30.03,NNW,331,0.0,0.0,78,0.00,CLR,,0.00,WeatherDisplay:10.37,2013-02-15 09:11:00,
2013-02-15 03:16:00,38.9,32.6,30.03,NNW,331,0.0,0.0,78,0.00,CLR,,0.00,WeatherDisplay:10.37,2013-02-15 09:16:00,
2013-02-15 03:21:00,38.8,32.5,30.03,NNW,331,0.0,0.0,78,0.00,CLR,,0.00,WeatherDisplay:10.37,2013-02-15 09:21:00,
2013-02-15 03:26:00,38.6,32.3,30.04,NNW,331,0.0,0.0,78,0.00,CLR,,0.00,WeatherDisplay:10.37,2013-02-15 09:26:00,
2013-02-15 03:31:00,38.3,32.4,30.04,NNW,331,0.0,0.0,79,0.00,CLR,,0.00,WeatherDisplay:10.37,2013-02-15 09:31:00,
2013-02-15 03:36:00,38.0,32.1,30.04,NNW,331,1.1,0.0,79,0.00,CLR,,0.00,WeatherDisplay:10.37,2013-02-15 09:36:00,
2013-02-15 03:41:00,37.9,32.3,30.04,NNW,331,0.0,0.0,80,0.00,CLR,,0.00,WeatherDisplay:10.37,2013-02-15 09:41:00,
2013-02-15 03:46:00,37.8,32.2,30.04,NNW,331,0.0,0.0,80,0.00,CLR,,0.00,WeatherDisplay:10.37,2013-02-15 09:46:00,
2013-02-15 03:51:00,37.8,32.5,30.04,NNW,331,0.0,0.0,81,0.00,CLR,,0.00,WeatherDisplay:10.37,2013-02-15 09:51:00,
2013-02-15 03:56:00,37.8,32.5,30.05,NNW,331,0.0,0.0,81,0.00,CLR,,0.00,WeatherDisplay:10.37,2013-02-15 09:56:00,
2013-02-15 04:01:00,37.7,32.4,30.05,NNW,331,0.0,0.0,81,0.00,CLR,,0.00,WeatherDisplay:10.37,2013-02-15 10:01:00,
2013-02-15 04:06:00,37.5,32.2,30.05,NNW,331,0.0,0.0,81,0.00,CLR,,0.00,WeatherDisplay:10.37,2013-02-15 10:06:00,
2013-02-15 04:11:00,37.4,32.4,30.05,NNW,331,0.0,0.0,82,0.00,CLR,,0.00,WeatherDisplay:10.37,2013-02-15 10:11:00,
2013-02-15 04:16:00,37.5,32.5,30.06,NW,325,1.1,1.1,82,0.00,CLR,,0.00,WeatherDisplay:10.37,2013-02-15 10:16:00,
2013-02-15 04:21:00,37.6,32.6,30.06,NW,325,0.0,0.0,82,0.00,CLR,,0.00,WeatherDisplay:10.37,2013-02-15 10:21:00,
2013-02-15 04:26:00,37.9,32.9,30.06,NW,325,0.0,0.0,82,0.00,CLR,,0.00,WeatherDisplay:10.37,2013-02-15 10:26:00,
2013-02-15 04:31:00,38.0,33.0,30.06,NW,325,0.0,0.0,82,0.00,CLR,,0.00,WeatherDisplay:10.37,2013-02-15 10:31:00,
2013-02-15 04:36:00,38.2,33.2,30.07,NW,325,0.0,0.0,82,0.00,CLR,,0.00,WeatherDisplay:10.37,2013-02-15 10:36:00,
2013-02-15 04:41:00,38.1,33.1,30.07,NW,325,0.0,0.0,82,0.00,CLR,,0.00,WeatherDisplay:10.37,2013-02-15 10:41:00,
2013-02-15 04:46:00,38.1,33.1,30.07,NW,325,0.0,0.0,82,0.00,CLR,,0.00,WeatherDisplay:10.37,2013-02-15 10:46:00,
2013-02-15 04:51:00,38.0,32.7,30.07,NW,325,0.0,0.0,81,0.00,CLR,,0.00,WeatherDisplay:10.37,2013-02-15 10:51:00,
2013-02-15 04:56:00,38.0,32.7,30.07,NW,326,1.1,1.1,81,0.00,CLR,,0.00,WeatherDisplay:10.37,2013-02-15 10:56:00,
2013-02-15 05:01:00,38.1,32.8,30.07,NNW,330,0.0,0.0,81,0.00,CLR,,0.00,WeatherDisplay:10.37,2013-02-15 11:01:00,
2013-02-15 05:06:00,38.3,33.0,30.07,NNW,329,0.0,0.0,81,0.00,CLR,,0.00,WeatherDisplay:10.37,2013-02-15 11:06:00,
2013-02-15 05:11:00,38.5,32.9,30.08,NNW,329,0.0,0.1,80,0.00,CLR,,0.00,WeatherDisplay:10.37,2013-02-15 11:11:00,
2013-02-15 05:16:00,38.8,32.5,30.08,NNW,336,2.0,2.0,78,0.00,CLR,,0.00,WeatherDisplay:10.37,2013-02-15 11:16:00,
2013-02-15 05:21:00,38.9,32.3,30.08,NNW,327,2.0,2.0,77,0.00,CLR,,0.00,WeatherDisplay:10.37,2013-02-15 11:21:00,
2013-02-15 05:26:00,39.1,32.5,30.08,NW,317,3.5,3.5,77,0.00,CLR,,0.00,WeatherDisplay:10.37,2013-02-15 11:26:00,
2013-02-15 05:31:00,39.4,32.5,30.08,NW,319,2.3,2.3,76,0.00,CLR,,0.00,WeatherDisplay:10.37,2013-02-15 11:31:00,
2013-02-15 05:36:00,39.6,32.3,30.08,NW,325,4.0,4.0,75,0.00,CLR,,0.00,WeatherDisplay:10.37,2013-02-15 11:36:00,
2013-02-15 05:41:00,39.8,32.2,30.09,NW,309,4.6,4.6,74,0.00,CLR,,0.00,WeatherDisplay:10.37,2013-02-15 11:41:00,
2013-02-15 05:46:00,39.7,32.1,30.09,NW,325,5.8,5.8,74,0.00,CLR,,0.00,WeatherDisplay:10.37,2013-02-15 11:46:00,
2013-02-15 05:51:00,39.6,32.7,30.10,West,277,9.2,9.2,76,0.00,CLR,,0.00,WeatherDisplay:10.37,2013-02-15 11:51:00,
2013-02-15 05:56:00,39.6,33.0,30.10,NNW,333,8.1,8.1,77,0.00,CLR,,0.00,WeatherDisplay:10.37,2013-02-15 11:56:00,
2013-02-15 06:01:00,39.8,33.2,30.10,NW,304,3.5,3.5,77,0.00,CLR,,0.00,WeatherDisplay:10.37,2013-02-15 12:01:00,
2013-02-15 06:06:00,39.9,33.3,30.10,NW,321,4.6,4.6,77,0.00,CLR,,0.00,WeatherDisplay:10.37,2013-02-15 12:06:00,
2013-02-15 06:11:00,40.0,33.4,30.10,NW,304,7.0,7.0,77,0.00,CLR,,0.00,WeatherDisplay:10.37,2013-02-15 12:11:00,
2013-02-15 06:16:00,40.1,33.5,30.11,NW,325,4.6,4.6,77,0.00,CLR,,0.00,WeatherDisplay:10.37,2013-02-15 12:16:00,
2013-02-15 06:21:00,40.3,33.7,30.10,NW,324,1.1,1.1,77,0.00,CLR,,0.00,WeatherDisplay:10.37,2013-02-15 12:21:00,
2013-02-15 06:26:00,40.3,33.7,30.10,NW,324,2.3,0.0,77,0.00,CLR,,0.00,WeatherDisplay:10.37,2013-02-15 12:26:00,
2013-02-15 06:31:00,40.3,33.7,30.10,NW,324,0.0,0.0,77,0.00,CLR,,0.00,WeatherDisplay:10.37,2013-02-15 12:31:00,
2013-02-15 06:36:00,40.3,33.3,30.10,NW,324,0.0,0.0,76,0.00,CLR,,0.00,WeatherDisplay:10.37,2013-02-15 12:36:00,
2013-02-15 06:41:00,40.2,33.2,30.10,NW,324,0.0,0.0,76,0.00,CLR,,0.00,WeatherDisplay:10.37,2013-02-15 12:41:00,
2013-02-15 06:46:00,40.1,33.5,30.10,NW,324,0.0,0.0,77,0.00,CLR,,0.00,WeatherDisplay:10.37,2013-02-15 12:46:00,
2013-02-15 06:52:00,40.0,33.4,30.10,NW,324,0.0,0.0,77,0.00,CLR,,0.00,WeatherDisplay:10.37,2013-02-15 12:52:00,
2013-02-15 06:57:00,39.9,32.9,30.10,NW,324,0.0,0.0,76,0.00,CLR,,0.00,WeatherDisplay:10.37,2013-02-15 12:57:00,
2013-02-15 07:02:00,39.8,33.2,30.10,NW,324,0.0,0.0,77,0.00,CLR,,0.00,WeatherDisplay:10.37,2013-02-15 13:02:00,
2013-02-15 07:07:00,39.8,33.2,30.10,NW,324,0.0,0.0,77,0.00,CLR,,0.00,WeatherDisplay:10.37,2013-02-15 13:07:00,
2013-02-15 07:12:00,39.7,33.1,30.10,NW,324,0.0,0.0,77,0.00,CLR,,0.00,WeatherDisplay:10.37,2013-02-15 13:12:00,
2013-02-15 07:17:00,39.7,33.1,30.10,NW,324,0.0,0.0,77,0.00,CLR,,0.00,WeatherDisplay:10.37,2013-02-15 13:17:00,
2013-02-15 07:22:00,39.6,33.0,30.10,NW,324,0.0,0.0,77,0.00,CLR,,0.00,WeatherDisplay:10.37,2013-02-15 13:22:00,
2013-02-15 07:27:00,39.6,33.0,30.10,NW,324,0.0,0.0,77,0.00,CLR,,0.00,WeatherDisplay:10.37,2013-02-15 13:27:00,
2013-02-15 07:32:00,39.5,33.2,30.11,NW,324,0.0,0.0,78,0.00,CLR,,0.00,WeatherDisplay:10.37,2013-02-15 13:32:00,
2013-02-15 07:37:00,39.5,33.2,30.11,NW,324,0.0,0.0,78,0.00,CLR,,0.00,WeatherDisplay:10.37,2013-02-15 13:37:00,
2013-02-15 07:42:00,39.5,33.5,30.11,NW,324,0.0,0.0,79,0.00,CLR,,0.00,WeatherDisplay:10.37,2013-02-15 13:42:00,
2013-02-15 07:47:00,39.5,33.5,30.11,NW,324,0.0,0.0,79,0.00,CLR,,0.00,WeatherDisplay:10.37,2013-02-15 13:47:00,
2013-02-15 07:52:00,39.5,33.8,30.12,NW,324,0.0,0.0,80,0.00,CLR,,0.00,WeatherDisplay:10.37,2013-02-15 13:52:00,
2013-02-15 07:57:00,39.5,33.8,30.12,NW,324,0.0,0.0,80,0.00,CLR,,0.00,WeatherDisplay:10.37,2013-02-15 13:57:00,
2013-02-15 08:02:00,39.5,33.8,30.12,NW,324,0.0,0.0,80,0.00,CLR,,0.00,WeatherDisplay:10.37,2013-02-15 14:02:00,
2013-02-15 08:07:00,39.4,33.4,30.12,NW,324,0.0,0.0,79,0.00,CLR,,0.00,WeatherDisplay:10.37,2013-02-15 14:07:00,
2013-02-15 08:12:00,39.5,33.5,30.12,NW,324,0.0,0.0,79,0.00,CLR,,0.00,WeatherDisplay:10.37,2013-02-15 14:12:00,
2013-02-15 08:17:00,39.8,34.1,30.13,NW,319,2.3,2.3,80,0.00,CLR,,0.00,WeatherDisplay:10.37,2013-02-15 14:17:00,
2013-02-15 08:22:00,40.3,34.9,30.13,West,274,3.5,3.5,81,0.00,CLR,,0.00,WeatherDisplay:10.37,2013-02-15 14:22:00,
2013-02-15 08:27:00,41.1,35.4,30.13,West,270,3.5,3.5,80,0.00,CLR,,0.00,WeatherDisplay:10.37,2013-02-15 14:27:00,
2013-02-15 08:32:00,42.0,35.3,30.13,NW,321,6.0,6.0,77,0.00,CLR,,0.00,WeatherDisplay:10.37,2013-02-15 14:32:00,
2013-02-15 08:37:00,42.7,35.3,30.13,NNW,341,4.6,4.6,75,0.00,CLR,,0.00,WeatherDisplay:10.37,2013-02-15 14:37:00,
2013-02-15 08:42:00,43.3,35.2,30.14,WNW,282,9.2,9.2,73,0.00,CLR,,0.00,WeatherDisplay:10.37,2013-02-15 14:42:00,
2013-02-15 08:47:00,43.8,35.4,30.14,WNW,283,11.5,11.5,72,0.00,CLR,,0.00,WeatherDisplay:10.37,2013-02-15 14:47:00,
2013-02-15 08:52:00,44.1,34.2,30.14,WNW,289,10.4,10.4,68,0.00,CLR,,0.00,WeatherDisplay:10.37,2013-02-15 14:52:00,
2013-02-15 08:57:00,44.2,33.9,30.14,NW,320,11.5,11.5,67,0.00,CLR,,0.00,WeatherDisplay:10.37,2013-02-15 14:57:00,
2013-02-15 09:02:00,44.5,34.6,30.14,West,279,3.5,3.5,68,0.00,CLR,,0.00,WeatherDisplay:10.37,2013-02-15 15:02:00,
2013-02-15 09:07:00,44.8,34.1,30.14,NW,308,9.2,9.2,66,0.00,CLR,,0.00,WeatherDisplay:10.37,2013-02-15 15:07:00,
2013-02-15 09:12:00,44.6,33.6,30.14,NNW,341,11.5,11.5,65,0.00,CLR,,0.00,WeatherDisplay:10.37,2013-02-15 15:12:00,
2013-02-15 09:17:00,44.6,33.6,30.14,NNW,335,10.0,10.0,65,0.00,CLR,,0.00,WeatherDisplay:10.37,2013-02-15 15:17:00,
2013-02-15 09:22:00,44.6,33.2,30.14,NNW,344,8.1,8.1,64,0.00,CLR,,0.00,WeatherDisplay:10.37,2013-02-15 15:22:00,
2013-02-15 09:27:00,44.9,33.5,30.14,WNW,299,9.2,9.2,64,0.00,CLR,,0.00,WeatherDisplay:10.37,2013-02-15 15:27:00,
2013-02-15 09:32:00,45.0,33.5,30.14,West,269,8.1,8.1,64,0.00,CLR,,0.00,WeatherDisplay:10.37,2013-02-15 15:32:00,
2013-02-15 09:37:00,45.0,32.8,30.14,NNW,333,3.5,3.5,62,0.00,CLR,,0.00,WeatherDisplay:10.37,2013-02-15 15:37:00,
2013-02-15 09:42:00,45.1,32.4,30.15,North,355,11.5,11.5,61,0.00,CLR,,0.00,WeatherDisplay:10.37,2013-02-15 15:42:00,
2013-02-15 09:47:00,45.2,32.5,30.15,West,275,9.2,9.2,61,0.00,CLR,,0.00,WeatherDisplay:10.37,2013-02-15 15:47:00,
2013-02-15 09:52:00,45.2,32.1,30.15,WNW,292,8.1,8.1,60,0.00,CLR,,0.00,WeatherDisplay:10.37,2013-02-15 15:52:00,
2013-02-15 09:57:00,45.3,32.2,30.15,WSW,254,13.8,13.8,60,0.00,CLR,,0.00,WeatherDisplay:10.37,2013-02-15 15:57:00,
2013-02-15 10:02:00,45.5,32.4,30.15,West,260,11.5,11.5,60,0.00,CLR,,0.00,WeatherDisplay:10.37,2013-02-15 16:02:00,
2013-02-15 10:07:00,45.8,32.7,30.15,NW,319,8.1,8.1,60,0.00,CLR,,0.00,WeatherDisplay:10.37,2013-02-15 16:07:00,
2013-02-15 10:12:00,45.8,33.1,30.15,NNW,348,11.5,11.5,61,0.00,CLR,,0.00,WeatherDisplay:10.37,2013-02-15 16:12:00,
2013-02-15 10:17:00,45.1,32.8,30.15,North,5,3.5,3.5,62,0.00,CLR,,0.00,WeatherDisplay:10.37,2013-02-15 16:17:00,
2013-02-15 10:22:00,44.2,32.4,30.16,NW,320,5.8,5.8,63,0.00,CLR,,0.00,WeatherDisplay:10.37,2013-02-15 16:22:00,
2013-02-15 10:27:00,44.1,33.1,30.15,NNW,330,4.6,4.6,65,0.00,CLR,,0.00,WeatherDisplay:10.37,2013-02-15 16:27:00,
2013-02-15 10:32:00,44.6,33.9,30.15,WNW,285,8.0,8.0,66,0.00,CLR,,0.00,WeatherDisplay:10.37,2013-02-15 16:32:00,
2013-02-15 10:37:00,45.0,33.5,30.16,NW,319,6.0,6.0,64,0.00,CLR,,0.00,WeatherDisplay:10.37,2013-02-15 16:37:00,
2013-02-15 10:42:00,44.8,32.6,30.16,North,351,8.1,8.1,62,0.00,CLR,,0.00,WeatherDisplay:10.37,2013-02-15 16:42:00,
2013-02-15 10:47:00,44.9,32.7,30.16,North,355,4.6,4.6,62,0.00,CLR,,0.00,WeatherDisplay:10.37,2013-02-15 16:47:00,
2013-02-15 10:52:00,45.0,32.8,30.16,NNW,327,6.0,6.0,62,0.00,CLR,,0.00,WeatherDisplay:10.37,2013-02-15 16:52:00,
2013-02-15 10:57:00,44.6,32.4,30.16,NNW,337,5.8,5.8,62,0.00,CLR,,0.00,WeatherDisplay:10.37,2013-02-15 16:57:00,
2013-02-15 11:02:00,44.7,32.1,30.16,North,11,4.6,4.6,61,0.00,CLR,,0.00,WeatherDisplay:10.37,2013-02-15 17:02:00,
2013-02-15 11:07:00,44.8,32.2,30.16,NNW,327,5.0,5.0,61,0.00,CLR,,0.00,WeatherDisplay:10.37,2013-02-15 17:07:00,
2013-02-15 11:12:00,44.5,32.7,30.16,North,355,9.2,9.2,63,0.00,CLR,,0.00,WeatherDisplay:10.37,2013-02-15 17:12:00,
2013-02-15 11:17:00,44.0,31.4,30.16,NW,321,6.0,6.0,61,0.00,CLR,,0.00,WeatherDisplay:10.37,2013-02-15 17:17:00,
2013-02-15 11:22:00,43.8,31.6,30.16,NNW,347,9.0,9.0,62,0.00,CLR,,0.00,WeatherDisplay:10.37,2013-02-15 17:22:00,
2013-02-15 11:27:00,43.1,30.6,30.16,NW,304,7.0,7.0,61,0.00,CLR,,0.00,WeatherDisplay:10.37,2013-02-15 17:27:00,
2013-02-15 11:32:00,43.2,32.2,30.16,NW,323,10.4,10.4,65,0.00,CLR,,0.00,WeatherDisplay:10.37,2013-02-15 17:32:00,
2013-02-15 11:37:00,43.4,31.2,30.16,NW,325,11.5,11.5,62,0.00,CLR,,0.00,WeatherDisplay:10.37,2013-02-15 17:37:00,
2013-02-15 11:42:00,43.5,31.7,30.16,NNW,332,11.5,11.5,63,0.00,CLR,,0.00,WeatherDisplay:10.37,2013-02-15 17:42:00,
2013-02-15 11:47:00,43.9,32.1,30.16,WNW,292,9.2,9.2,63,0.00,CLR,,0.00,WeatherDisplay:10.37,2013-02-15 17:47:00,
2013-02-15 11:52:00,44.2,31.6,30.16,NW,323,9.2,9.2,61,0.00,CLR,,0.00,WeatherDisplay:10.37,2013-02-15 17:52:00,
2013-02-15 11:57:00,44.0,31.4,30.16,West,263,11.5,11.5,61,0.00,CLR,,0.00,WeatherDisplay:10.37,2013-02-15 17:57:00,
2013-02-15 12:02:00,43.8,30.8,30.16,WNW,296,10.4,10.4,60,0.00,CLR,,0.00,WeatherDisplay:10.37,2013-02-15 18:02:00,
2013-02-15 12:07:00,43.8,32.0,30.16,North,355,9.2,9.2,63,0.00,CLR,,0.00,WeatherDisplay:10.37,2013-02-15 18:07:00,
2013-02-15 12:12:00,43.3,30.3,30.16,NNW,346,9.2,9.2,60,0.00,CLR,,0.00,WeatherDisplay:10.37,2013-02-15 18:12:00,
2013-02-15 12:17:00,42.7,30.2,30.16,NNW,327,10.4,10.4,61,0.00,CLR,,0.00,WeatherDisplay:10.37,2013-02-15 18:17:00,
2013-02-15 12:22:00,43.3,30.3,30.16,WNW,295,6.9,6.9,60,0.00,CLR,,0.00,WeatherDisplay:10.37,2013-02-15 18:22:00,
2013-02-15 12:27:00,43.4,30.0,30.16,North,360,3.5,3.5,59,0.00,CLR,,0.00,WeatherDisplay:10.37,2013-02-15 18:27:00,
2013-02-15 12:32:00,43.2,30.6,30.15,NNW,344,6.9,6.9,61,0.00,CLR,,0.00,WeatherDisplay:10.37,2013-02-15 18:32:00,
2013-02-15 12:37:00,43.3,30.3,30.15,North,5,8.1,8.1,60,0.00,CLR,,0.00,WeatherDisplay:10.37,2013-02-15 18:37:00,
2013-02-15 12:42:00,42.9,30.0,30.15,North,5,11.5,11.5,60,0.00,CLR,,0.00,WeatherDisplay:10.37,2013-02-15 18:42:00,
2013-02-15 12:47:00,42.9,30.4,30.15,NNE,27,9.2,9.2,61,0.00,CLR,,0.00,WeatherDisplay:10.37,2013-02-15 18:47:00,
2013-02-15 12:53:00,43.6,30.2,30.15,NNW,346,4.6,4.6,59,0.00,CLR,,0.00,WeatherDisplay:10.37,2013-02-15 18:53:00,
2013-02-15 12:58:00,44.0,30.6,30.15,WSW,242,8.1,8.1,59,0.00,CLR,,0.00,WeatherDisplay:10.37,2013-02-15 18:58:00,
2013-02-15 13:03:00,44.8,30.0,30.15,NW,308,6.9,6.9,56,0.00,CLR,,0.00,WeatherDisplay:10.37,2013-02-15 19:03:00,
2013-02-15 13:08:00,45.7,31.8,30.15,NNW,341,5.8,5.8,58,0.00,CLR,,0.00,WeatherDisplay:10.37,2013-02-15 19:08:00,
2013-02-15 13:13:00,46.0,30.3,30.15,NW,317,3.5,3.5,54,0.00,CLR,,0.00,WeatherDisplay:10.37,2013-02-15 19:13:00,
2013-02-15 13:18:00,45.3,28.7,30.15,NNW,348,2.3,2.3,52,0.00,CLR,,0.00,WeatherDisplay:10.37,2013-02-15 19:18:00,
2013-02-15 13:23:00,44.7,28.6,30.15,NNW,348,10.4,10.4,53,0.00,CLR,,0.00,WeatherDisplay:10.37,2013-02-15 19:23:00,
2013-02-15 13:28:00,45.1,29.0,30.14,NNW,332,11.5,11.5,53,0.00,CLR,,0.00,WeatherDisplay:10.37,2013-02-15 19:28:00,
2013-02-15 13:33:00,45.7,30.4,30.14,North,355,3.5,3.5,55,0.00,CLR,,0.00,WeatherDisplay:10.37,2013-02-15 19:33:00,
2013-02-15 13:38:00,45.2,28.1,30.14,WNW,298,5.0,5.0,51,0.00,CLR,,0.00,WeatherDisplay:10.37,2013-02-15 19:38:00,
2013-02-15 13:43:00,44.9,27.8,30.14,NW,322,4.6,4.6,51,0.00,CLR,,0.00,WeatherDisplay:10.37,2013-02-15 19:43:00,
2013-02-15 13:48:00,44.5,27.0,30.14,WNW,285,4.6,4.6,50,0.00,CLR,,0.00,WeatherDisplay:10.37,2013-02-15 19:48:00,
2013-02-15 13:53:00,44.1,26.1,30.14,WNW,286,8.1,8.1,49,0.00,CLR,,0.00,WeatherDisplay:10.37,2013-02-15 19:53:00,
2013-02-15 13:58:00,43.9,26.9,30.14,North,360,4.0,4.0,51,0.00,CLR,,0.00,WeatherDisplay:10.37,2013-02-15 19:58:00,
2013-02-15 14:03:00,44.4,29.2,30.14,NW,306,11.0,11.0,55,0.00,CLR,,0.00,WeatherDisplay:10.37,2013-02-15 20:03:00,
2013-02-15 14:08:00,44.7,26.7,30.13,North,355,9.0,9.0,49,0.00,CLR,,0.00,WeatherDisplay:10.37,2013-02-15 20:08:00,
2013-02-15 14:13:00,45.1,27.1,30.14,WSW,257,11.0,11.0,49,0.00,CLR,,0.00,WeatherDisplay:10.37,2013-02-15 20:13:00,
2013-02-15 14:18:00,45.8,27.2,30.14,West,270,7.0,7.0,48,0.00,CLR,,0.00,WeatherDisplay:10.37,2013-02-15 20:18:00,
2013-02-15 14:23:00,45.9,28.3,30.14,West,263,13.8,13.8,50,0.00,CLR,,0.00,WeatherDisplay:10.37,2013-02-15 20:23:00,
2013-02-15 14:28:00,46.3,27.7,30.14,NNW,346,11.5,11.5,48,0.00,CLR,,0.00,WeatherDisplay:10.37,2013-02-15 20:28:00,
2013-02-15 14:33:00,45.9,26.8,30.14,NW,326,11.5,11.5,47,0.00,CLR,,0.00,WeatherDisplay:10.37,2013-02-15 20:33:00,
2013-02-15 14:38:00,45.4,24.7,30.14,NW,316,13.8,13.8,44,0.00,CLR,,0.00,WeatherDisplay:10.37,2013-02-15 20:38:00,
2013-02-15 14:43:00,45.0,25.4,30.14,West,273,13.8,13.8,46,0.00,CLR,,0.00,WeatherDisplay:10.37,2013-02-15 20:43:00,
2013-02-15 14:48:00,44.2,24.2,30.15,NW,322,9.2,9.2,45,0.00,CLR,,0.00,WeatherDisplay:10.37,2013-02-15 20:48:00,
2013-02-15 14:53:00,44.1,24.1,30.15,West,260,11.5,11.5,45,0.00,CLR,,0.00,WeatherDisplay:10.37,2013-02-15 20:53:00,
2013-02-15 14:58:00,44.6,23.5,30.15,NW,311,11.5,11.5,43,0.00,CLR,,0.00,WeatherDisplay:10.37,2013-02-15 20:58:00,
2013-02-15 15:03:00,44.7,23.0,30.15,NNW,338,15.0,15.0,42,0.00,CLR,,0.00,WeatherDisplay:10.37,2013-02-15 21:03:00,
2013-02-15 15:08:00,44.1,21.9,30.15,NNW,346,7.0,7.0,41,0.00,CLR,,0.00,WeatherDisplay:10.37,2013-02-15 21:08:00,
2013-02-15 15:13:00,44.0,22.4,30.15,North,9,10.4,10.4,42,0.00,CLR,,0.00,WeatherDisplay:10.37,2013-02-15 21:13:00,
2013-02-15 15:18:00,44.3,23.7,30.15,West,275,9.2,9.2,44,0.00,CLR,,0.00,WeatherDisplay:10.37,2013-02-15 21:18:00,
2013-02-15 15:23:00,44.7,22.4,30.15,WSW,242,10.4,10.4,41,0.00,CLR,,0.00,WeatherDisplay:10.37,2013-02-15 21:23:00,
2013-02-15 15:28:00,44.9,20.8,30.15,West,277,5.8,5.8,38,0.00,CLR,,0.00,WeatherDisplay:10.37,2013-02-15 21:28:00,
2013-02-15 15:33:00,44.3,19.0,30.15,NNW,346,4.6,4.6,36,0.00,CLR,,0.00,WeatherDisplay:10.37,2013-02-15 21:33:00,
2013-02-15 15:38:00,44.1,18.8,30.16,North,355,11.5,11.5,36,0.00,CLR,,0.00,WeatherDisplay:10.37,2013-02-15 21:38:00,
2013-02-15 15:43:00,43.8,17.9,30.16,NW,316,8.1,8.1,35,0.00,CLR,,0.00,WeatherDisplay:10.37,2013-02-15 21:43:00,
2013-02-15 15:48:00,43.8,17.9,30.16,West,265,11.5,11.5,35,0.00,CLR,,0.00,WeatherDisplay:10.37,2013-02-15 21:48:00,
2013-02-15 15:53:00,44.2,16.9,30.16,West,281,9.2,9.2,33,0.00,CLR,,0.00,WeatherDisplay:10.37,2013-02-15 21:53:00,
2013-02-15 15:58:00,43.7,15.7,30.16,NNW,340,8.0,8.0,32,0.00,CLR,,0.00,WeatherDisplay:10.37,2013-02-15 21:58:00,
2013-02-15 16:03:00,43.4,16.2,30.16,NW,309,11.5,11.5,33,0.00,CLR,,0.00,WeatherDisplay:10.37,2013-02-15 22:03:00,
2013-02-15 16:08:00,43.3,16.8,30.16,North,355,3.5,3.5,34,0.00,CLR,,0.00,WeatherDisplay:10.37,2013-02-15 22:08:00,
2013-02-15 16:13:00,43.0,16.5,30.16,North,355,4.0,4.0,34,0.00,CLR,,0.00,WeatherDisplay:10.37,2013-02-15 22:13:00,
2013-02-15 16:18:00,42.7,16.9,30.16,NNE,13,2.3,2.3,35,0.00,CLR,,0.00,WeatherDisplay:10.37,2013-02-15 22:18:00,
2013-02-15 16:23:00,42.5,16.7,30.16,North,350,3.5,3.5,35,0.00,CLR,,0.00,WeatherDisplay:10.37,2013-02-15 22:23:00,
2013-02-15 16:28:00,42.4,17.3,30.16,North,351,5.8,5.8,36,0.00,CLR,,0.00,WeatherDisplay:10.37,2013-02-15 22:28:00,
2013-02-15 16:33:00,42.4,17.3,30.16,North,5,4.0,4.0,36,0.00,CLR,,0.00,WeatherDisplay:10.37,2013-02-15 22:33:00,
2013-02-15 16:38:00,42.3,16.6,30.16,NNW,338,3.5,3.5,35,0.00,CLR,,0.00,WeatherDisplay:10.37,2013-02-15 22:38:00,
2013-02-15 16:43:00,42.3,17.2,30.16,NW,318,13.8,13.8,36,0.00,CLR,,0.00,WeatherDisplay:10.37,2013-02-15 22:43:00,
2013-02-15 16:49:00,42.0,17.6,30.16,NNW,348,4.6,4.6,37,0.00,CLR,,0.00,WeatherDisplay:10.37,2013-02-15 22:49:00,
2013-02-15 16:54:00,41.8,18.6,30.16,NW,325,1.1,1.1,39,0.00,CLR,,0.00,WeatherDisplay:10.37,2013-02-15 22:54:00,
2013-02-15 16:59:00,41.5,18.4,30.16,NNW,343,3.5,3.5,39,0.00,CLR,,0.00,WeatherDisplay:10.37,2013-02-15 22:59:00,
2013-02-15 17:04:00,41.2,18.7,30.16,North,360,3.0,3.0,40,0.00,CLR,,0.00,WeatherDisplay:10.37,2013-02-15 23:04:00,
2013-02-15 17:09:00,40.9,18.4,30.16,North,9,4.6,4.6,40,0.00,CLR,,0.00,WeatherDisplay:10.37,2013-02-15 23:09:00,
2013-02-15 17:14:00,40.5,18.6,30.16,NW,313,2.3,2.3,41,0.00,CLR,,0.00,WeatherDisplay:10.37,2013-02-15 23:14:00,
2013-02-15 17:19:00,40.2,17.8,30.17,NNW,348,3.5,3.5,40,0.00,CLR,,0.00,WeatherDisplay:10.37,2013-02-15 23:19:00,
2013-02-15 17:24:00,39.9,18.6,30.17,North,360,2.0,2.0,42,0.00,CLR,,0.00,WeatherDisplay:10.37,2013-02-15 23:24:00,
2013-02-15 17:29:00,39.6,18.4,30.17,North,355,0.0,0.0,42,0.00,CLR,,0.00,WeatherDisplay:10.37,2013-02-15 23:29:00,
2013-02-15 17:34:00,39.3,18.6,30.17,North,355,2.3,2.3,43,0.00,CLR,,0.00,WeatherDisplay:10.37,2013-02-15 23:34:00,
2013-02-15 17:39:00,39.0,18.9,30.17,North,9,1.1,1.1,44,0.00,CLR,,0.00,WeatherDisplay:10.37,2013-02-15 23:39:00,
2013-02-15 17:44:00,38.6,19.1,30.17,North,9,1.1,1.1,45,0.00,CLR,,0.00,WeatherDisplay:10.37,2013-02-15 23:44:00,
2013-02-15 17:49:00,38.3,19.8,30.17,North,9,3.5,3.5,47,0.00,CLR,,0.00,WeatherDisplay:10.37,2013-02-15 23:49:00,
2013-02-15 17:54:00,38.0,20.0,30.17,North,9,1.1,1.1,48,0.00,CLR,,0.00,WeatherDisplay:10.37,2013-02-15 23:54:00,
2013-02-15 17:59:00,37.7,20.2,30.18,NNE,12,1.1,1.1,49,0.00,CLR,,0.00,WeatherDisplay:10.37,2013-02-15 23:59:00,
2013-02-15 18:04:00,37.5,20.5,30.18,NNE,12,1.1,1.1,50,0.00,CLR,,0.00,WeatherDisplay:10.37,2013-02-16 00:04:00,
2013-02-15 18:09:00,37.2,20.2,30.18,NNE,12,0.0,0.0,50,0.00,CLR,,0.00,WeatherDisplay:10.37,2013-02-16 00:09:00,
2013-02-15 18:14:00,36.9,20.4,30.18,NNE,12,1.1,1.1,51,0.00,CLR,,0.00,WeatherDisplay:10.37,2013-02-16 00:14:00,
2013-02-15 18:19:00,36.7,20.7,30.18,NNE,12,1.1,1.1,52,0.00,CLR,,0.00,WeatherDisplay:10.37,2013-02-16 00:19:00,
2013-02-15 18:24:00,36.5,20.5,30.18,North,9,1.1,1.1,52,0.00,CLR,,0.00,WeatherDisplay:10.37,2013-02-16 00:24:00,
2013-02-15 18:29:00,36.3,20.8,30.18,North,9,1.1,0.0,53,0.00,CLR,,0.00,WeatherDisplay:10.37,2013-02-16 00:29:00,
2013-02-15 18:34:00,36.1,20.6,30.18,North,9,1.1,1.1,53,0.00,CLR,,0.00,WeatherDisplay:10.37,2013-02-16 00:34:00,
2013-02-15 18:39:00,35.9,20.4,30.19,North,9,1.1,1.1,53,0.00,CLR,,0.00,WeatherDisplay:10.37,2013-02-16 00:39:00,
2013-02-15 18:44:00,35.8,20.3,30.19,North,9,1.1,1.1,53,0.00,CLR,,0.00,WeatherDisplay:10.37,2013-02-16 00:44:00,
2013-02-15 18:49:00,35.7,20.2,30.19,North,9,1.1,1.1,53,0.00,CLR,,0.00,WeatherDisplay:10.37,2013-02-16 00:49:00,
2013-02-15 18:54:00,35.6,20.1,30.19,North,9,1.1,1.1,53,0.00,CLR,,0.00,WeatherDisplay:10.37,2013-02-16 00:54:00,
2013-02-15 18:59:00,35.4,19.9,30.19,North,9,1.1,0.0,53,0.00,CLR,,0.00,WeatherDisplay:10.37,2013-02-16 00:59:00,
2013-02-15 19:04:00,35.2,19.8,30.19,North,9,1.1,0.0,53,0.00,CLR,,0.00,WeatherDisplay:10.37,2013-02-16 01:04:00,
2013-02-15 19:09:00,35.1,19.7,30.19,North,9,1.1,0.0,53,0.00,CLR,,0.00,WeatherDisplay:10.37,2013-02-16 01:09:00,
2013-02-15 19:14:00,34.9,19.9,30.19,North,9,2.3,2.3,54,0.00,CLR,,0.00,WeatherDisplay:10.37,2013-02-16 01:14:00,
2013-02-15 19:19:00,34.8,19.8,30.19,North,9,2.0,2.0,54,0.00,CLR,,0.00,WeatherDisplay:10.37,2013-02-16 01:19:00,
2013-02-15 19:24:00,34.8,19.4,30.19,NNE,13,1.1,1.1,53,0.00,CLR,,0.00,WeatherDisplay:10.37,2013-02-16 01:24:00,
2013-02-15 19:29:00,34.7,19.3,30.19,NNE,13,1.1,1.1,53,0.00,CLR,,0.00,WeatherDisplay:10.37,2013-02-16 01:29:00,
2013-02-15 19:34:00,34.6,19.2,30.19,NNE,12,2.3,2.3,53,0.00,CLR,,0.00,WeatherDisplay:10.37,2013-02-16 01:34:00,
2013-02-15 19:39:00,34.5,19.1,30.19,NNE,12,0.0,0.2,53,0.00,CLR,,0.00,WeatherDisplay:10.37,2013-02-16 01:39:00,
2013-02-15 19:44:00,34.4,18.6,30.19,NNE,12,1.1,1.1,52,0.00,CLR,,0.00,WeatherDisplay:10.37,2013-02-16 01:44:00,
2013-02-15 19:49:00,34.4,19.0,30.19,NNE,12,1.1,0.0,53,0.00,CLR,,0.00,WeatherDisplay:10.37,2013-02-16 01:49:00,
2013-02-15 19:54:00,34.3,18.5,30.19,NNE,13,1.1,1.1,52,0.00,CLR,,0.00,WeatherDisplay:10.37,2013-02-16 01:54:00,
2013-02-15 19:59:00,34.3,18.9,30.19,NNE,12,2.3,2.3,53,0.00,CLR,,0.00,WeatherDisplay:10.37,2013-02-16 01:59:00,
2013-02-15 20:04:00,34.2,18.8,30.19,NNE,12,1.1,1.1,53,0.00,CLR,,0.00,WeatherDisplay:10.37,2013-02-16 02:04:00,
2013-02-15 20:09:00,34.1,18.7,30.19,NNE,12,0.0,0.0,53,0.00,CLR,,0.00,WeatherDisplay:10.37,2013-02-16 02:09:00,
2013-02-15 20:14:00,34.1,18.7,30.19,NNE,12,0.0,0.0,53,0.00,CLR,,0.00,WeatherDisplay:10.37,2013-02-16 02:14:00,
2013-02-15 20:19:00,34.0,18.6,30.19,NNE,12,0.0,0.0,53,0.00,CLR,,0.00,WeatherDisplay:10.37,2013-02-16 02:19:00,
2013-02-15 20:24:00,33.8,18.5,30.19,NNE,12,0.0,0.0,53,0.00,CLR,,0.00,WeatherDisplay:10.37,2013-02-16 02:24:00,
2013-02-15 20:30:00,33.6,18.7,30.19,NNE,12,0.0,0.0,54,0.00,CLR,,0.00,WeatherDisplay:10.37,2013-02-16 02:30:00,
2013-02-15 20:35:00,33.5,18.6,30.19,NNE,12,0.0,0.0,54,0.00,CLR,,0.00,WeatherDisplay:10.37,2013-02-16 02:35:00,
2013-02-15 20:40:00,33.3,18.4,30.19,NNE,12,0.0,0.0,54,0.00,CLR,,0.00,WeatherDisplay:10.37,2013-02-16 02:40:00,
2013-02-15 20:45:00,33.1,18.7,30.19,NNE,12,0.0,0.0,55,0.00,CLR,,0.00,WeatherDisplay:10.37,2013-02-16 02:45:00,
2013-02-15 20:50:00,33.0,18.6,30.19,NNE,12,0.0,0.0,55,0.00,CLR,,0.00,WeatherDisplay:10.37,2013-02-16 02:50:00,
2013-02-15 20:55:00,32.9,18.5,30.19,NNE,12,1.0,0.0,55,0.00,CLR,,0.00,WeatherDisplay:10.37,2013-02-16 02:55:00,
2013-02-15 21:00:00,32.8,18.4,30.19,NNE,12,0.0,0.0,55,0.00,CLR,,0.00,WeatherDisplay:10.37,2013-02-16 03:00:00,
2013-02-15 21:05:00,32.7,18.3,30.19,NNE,12,0.0,0.0,55,0.00,CLR,,0.00,WeatherDisplay:10.37,2013-02-16 03:05:00,
2013-02-15 21:10:00,32.6,18.2,30.19,NNE,12,0.0,0.0,55,0.00,CLR,,0.00,WeatherDisplay:10.37,2013-02-16 03:10:00,
2013-02-15 21:15:00,32.6,18.6,30.19,NNE,12,0.0,0.0,56,0.00,CLR,,0.00,WeatherDisplay:10.37,2013-02-16 03:15:00,
2013-02-15 21:20:00,32.4,18.4,30.19,NNE,12,0.0,0.0,56,0.00,CLR,,0.00,WeatherDisplay:10.37,2013-02-16 03:20:00,
2013-02-15 21:25:00,32.3,18.3,30.19,NNE,12,0.0,0.0,56,0.00,CLR,,0.00,WeatherDisplay:10.37,2013-02-16 03:25:00,
2013-02-15 21:30:00,32.2,18.7,30.19,NNE,12,0.0,0.0,57,0.00,CLR,,0.00,WeatherDisplay:10.37,2013-02-16 03:30:00,
2013-02-15 21:35:00,32.1,18.6,30.19,NNE,12,0.0,0.0,57,0.00,CLR,,0.00,WeatherDisplay:10.37,2013-02-16 03:35:00,
2013-02-15 21:40:00,32.1,18.2,30.19,NNE,12,0.0,0.0,56,0.00,CLR,,0.00,WeatherDisplay:10.37,2013-02-16 03:40:00,
2013-02-15 21:45:00,32.0,18.1,30.19,NNE,12,0.0,0.0,56,0.00,CLR,,0.00,WeatherDisplay:10.37,2013-02-16 03:45:00,
2013-02-15 21:50:00,31.9,18.0,30.19,NNE,12,0.0,0.0,56,0.00,CLR,,0.00,WeatherDisplay:10.37,2013-02-16 03:50:00,
2013-02-15 21:55:00,31.8,17.9,30.19,NNE,12,0.0,0.0,56,0.00,CLR,,0.00,WeatherDisplay:10.37,2013-02-16 03:55:00,
2013-02-15 22:00:00,31.8,17.9,30.19,NNE,12,0.0,0.0,56,0.00,CLR,,0.00,WeatherDisplay:10.37,2013-02-16 04:00:00,
2013-02-15 22:05:00,31.8,17.9,30.19,NNE,12,0.0,0.0,56,0.00,CLR,,0.00,WeatherDisplay:10.37,2013-02-16 04:05:00,
2013-02-15 22:10:00,31.4,19.1,30.19,NNE,12,0.0,0.0,60,0.00,CLR,,0.00,WeatherDisplay:10.37,2013-02-16 04:10:00,
2013-02-15 22:15:00,30.7,18.1,30.19,NNE,12,0.0,0.0,59,0.00,CLR,,0.00,WeatherDisplay:10.37,2013-02-16 04:15:00,
2013-02-15 22:20:00,30.3,17.7,30.18,NNE,12,0.0,0.0,59,0.00,CLR,,0.00,WeatherDisplay:10.37,2013-02-16 04:20:00,
2013-02-15 22:25:00,30.3,17.7,30.18,NNE,12,0.0,0.0,59,0.00,CLR,,0.00,WeatherDisplay:10.37,2013-02-16 04:25:00,
2013-02-15 22:30:00,30.5,17.9,30.18,NNE,12,0.0,0.0,59,0.00,CLR,,0.00,WeatherDisplay:10.37,2013-02-16 04:30:00,
2013-02-15 22:35:00,30.6,18.3,30.18,NNE,12,0.0,0.0,60,0.00,CLR,,0.00,WeatherDisplay:10.37,2013-02-16 04:35:00,
2013-02-15 22:40:00,30.5,18.6,30.18,NNE,12,0.0,0.0,61,0.00,CLR,,0.00,WeatherDisplay:10.37,2013-02-16 04:40:00,
2013-02-15 22:45:00,30.3,18.5,30.18,NNE,12,0.0,0.0,61,0.00,CLR,,0.00,WeatherDisplay:10.37,2013-02-16 04:45:00,
2013-02-15 22:50:00,30.1,18.6,30.18,NNE,12,0.0,0.0,62,0.00,CLR,,0.00,WeatherDisplay:10.37,2013-02-16 04:50:00,
2013-02-15 22:55:00,29.8,19.1,30.17,NNE,12,0.0,0.0,64,0.00,CLR,,0.00,WeatherDisplay:10.37,2013-02-16 04:55:00,
2013-02-15 23:00:00,29.6,19.3,30.17,NNE,12,0.0,0.0,65,0.00,CLR,,0.00,WeatherDisplay:10.37,2013-02-16 05:00:00,
2013-02-15 23:05:00,29.2,18.9,30.17,NNE,12,0.0,0.0,65,0.00,CLR,,0.00,WeatherDisplay:10.37,2013-02-16 05:05:00,
2013-02-15 23:10:00,28.9,19.0,30.17,NNE,12,0.0,0.0,66,0.00,CLR,,0.00,WeatherDisplay:10.37,2013-02-16 05:10:00,
2013-02-15 23:15:00,28.7,18.8,30.17,NNE,12,0.0,0.0,66,0.00,CLR,,0.00,WeatherDisplay:10.37,2013-02-16 05:15:00,
2013-02-15 23:20:00,28.3,18.0,30.17,NNE,12,0.0,0.0,65,0.00,CLR,,0.00,WeatherDisplay:10.37,2013-02-16 05:20:00,
2013-02-15 23:23:00,28.2,17.9,30.17,NNE,12,0.0,0.0,65,0.00,CLR,,0.00,WeatherDisplay:10.37,2013-02-16 05:23:00,
2013-02-15 23:28:00,28.1,17.8,30.17,NNE,12,0.0,0.0,65,0.00,CLR,,0.00,WeatherDisplay:10.37,2013-02-16 05:28:00,
2013-02-15 23:33:00,28.2,17.9,30.16,NNE,12,0.0,0.0,65,0.00,CLR,,0.00,WeatherDisplay:10.37,2013-02-16 05:33:00,
2013-02-15 23:38:00,28.2,17.6,30.16,NNE,12,0.0,0.0,64,0.00,CLR,,0.00,WeatherDisplay:10.37,2013-02-16 05:38:00,
2013-02-15 23:43:00,28.2,17.9,30.16,NNE,12,0.0,0.0,65,0.00,CLR,,0.00,WeatherDisplay:10.37,2013-02-16 05:43:00,
2013-02-15 23:48:00,28.1,18.2,30.16,NNE,12,0.0,0.0,66,0.00,CLR,,0.00,WeatherDisplay:10.37,2013-02-16 05:48:00,
2013-02-15 23:53:00,28.0,18.1,30.17,NNE,12,0.0,0.0,66,0.00,CLR,,0.00,WeatherDisplay:10.37,2013-02-16 05:53:00,
2013-02-15 23:58:00,27.7,17.8,30.17,NNE,12,0.0,0.0,66,0.00,CLR,,0.00,WeatherDisplay:10.37,2013-02-16 05:58:00,